Time;durP1;ratioP1;P1;durP2;ratioP2;P2;SDS_P1;SDS_P2;PMS_P1;PMS_P2;Temp;Humidity;BMP_temperature;BMP_pressure;BME280_temperature;BME280_humidity;BME280_pressure;Samples;Min_cycle;Max_cycle;Signal;HPM_P1;HPM_P2
2023/06/20 00:00:44;;;;;;;22.65;20.42;;;16.00;89.20;;;;;;5033927;28;20045;-45
2023/06/20 00:03:12;;;;;;;21.58;19.55;;;15.90;89.00;;;;;;5034517;28;20029;-45
2023/06/20 00:05:40;;;;;;;21.98;19.83;;;15.90;89.00;;;;;;5034585;28;20022;-45
2023/06/20 00:08:07;;;;;;;22.02;19.73;;;15.90;89.00;;;;;;5034411;28;20041;-46
2023/06/20 00:10:35;;;;;;;24.20;21.85;;;15.90;89.10;;;;;;5034369;28;20030;-45
2023/06/20 00:13:03;;;;;;;25.17;22.27;;;15.80;89.00;;;;;;5034286;28;20029;-45
2023/06/20 00:15:30;;;;;;;23.35;21.13;;;15.80;89.20;;;;;;5033073;28;20128;-46
2023/06/20 00:18:01;;;;;;;21.75;19.55;;;15.80;89.10;;;;;;5034314;28;20029;-45
2023/06/20 00:20:30;;;;;;;22.60;20.27;;;15.70;89.00;;;;;;5034052;28;20114;-46
2023/06/20 00:23:02;;;;;;;23.25;20.95;;;15.70;88.90;;;;;;5033207;28;20076;-46
2023/06/20 00:25:29;;;;;;;21.60;19.40;;;15.60;88.90;;;;;;5034249;28;20026;-45
2023/06/20 00:27:55;;;;;;;23.13;20.92;;;15.60;89.20;;;;;;5033961;28;20037;-46
2023/06/20 00:30:20;;;;;;;21.60;19.40;;;15.60;89.10;;;;;;5033745;28;20029;-45
2023/06/20 00:32:48;;;;;;;23.25;20.95;;;15.60;89.10;;;;;;5032863;28;20030;-45
2023/06/20 00:35:18;;;;;;;21.55;19.40;;;15.60;88.90;;;;;;5032845;28;20041;-45
2023/06/20 00:37:47;;;;;;;21.85;19.75;;;15.50;89.00;;;;;;5033779;28;20021;-44
2023/06/20 00:40:16;;;;;;;21.27;19.20;;;15.50;88.80;;;;;;5033579;28;20041;-44
2023/06/20 00:42:42;;;;;;;23.10;20.67;;;15.50;89.00;;;;;;5032657;28;20029;-45
2023/06/20 00:45:45;;;;;;;20.55;18.45;;;15.50;89.00;;;;;;5033613;28;20045;-44
2023/06/20 00:48:11;;;;;;;23.23;20.83;;;15.40;89.00;;;;;;5032543;28;20025;-45
2023/06/20 00:50:36;;;;;;;19.38;17.40;;;15.40;89.00;;;;;;5033567;28;20340;-44
2023/06/20 00:53:08;;;;;;;21.30;19.02;;;15.40;89.00;;;;;;5032296;28;20033;-44
2023/06/20 00:55:38;;;;;;;18.77;16.88;;;15.40;89.00;;;;;;5033407;28;20049;-45
2023/06/20 00:58:05;;;;;;;;;;;15.40;89.00;;;;;;5034007;28;20030;-43
2023/06/20 01:00:33;;;;;;;19.10;17.23;;;15.40;89.00;;;;;;5033373;28;19909;-45
2023/06/20 01:03:04;;;;;;;19.63;17.52;;;15.40;88.90;;;;;;5033525;28;20458;-44
2023/06/20 01:05:32;;;;;;;20.27;18.25;;;15.40;89.00;;;;;;5032235;28;20029;-45
2023/06/20 01:08:22;;;;;;;20.48;18.02;;;15.30;89.00;;;;;;5032269;28;20049;-44
2023/06/20 01:11:06;;;;;;;19.30;17.25;;;15.30;89.00;;;;;;5032038;28;20029;-44
2023/06/20 01:14:09;;;;;;;16.83;15.13;;;15.30;89.10;;;;;;5032872;28;20128;-45
2023/06/20 01:16:43;;;;;;;16.83;15.13;;;15.30;89.30;;;;;;5032031;28;20080;-45
2023/06/20 01:19:34;;;;;;;17.10;15.40;;;15.30;89.40;;;;;;5032191;28;20454;-44
2023/06/20 01:22:10;;;;;;;17.00;15.30;;;15.30;89.50;;;;;;5032016;28;20057;-44
2023/06/20 01:24:46;;;;;;;15.35;13.82;;;15.20;89.50;;;;;;5032178;28;20033;-44
2023/06/20 01:27:18;;;;;;;16.30;14.38;;;15.20;89.50;;;;;;5031918;28;20472;-44
2023/06/20 01:30:22;;;;;;;19.45;17.50;;;15.20;89.70;;;;;;5032255;28;20093;-44
2023/06/20 01:32:54;;;;;;;19.65;16.75;;;15.20;89.80;;;;;;5031822;28;20029;-43
2023/06/20 01:35:26;;;;;;;18.85;16.75;;;15.30;89.80;;;;;;5032497;28;20037;-44
2023/06/20 01:37:58;;;;;;;20.17;18.02;;;15.30;89.80;;;;;;5032259;28;20034;-44
2023/06/20 01:40:30;;;;;;;19.08;17.10;;;15.30;89.70;;;;;;5031901;28;20049;-43
2023/06/20 01:43:10;;;;;;;19.25;17.25;;;15.20;89.60;;;;;;5031436;28;20061;-43
2023/06/20 01:45:39;;;;;;;19.98;17.90;;;15.20;89.60;;;;;;5032649;28;20030;-43
2023/06/20 01:48:07;;;;;;;19.80;17.73;;;15.20;89.50;;;;;;5031970;28;20036;-43
2023/06/20 01:50:34;;;;;;;19.88;17.88;;;15.10;89.50;;;;;;5032182;28;20049;-43
2023/06/20 01:53:02;;;;;;;20.05;17.83;;;15.10;89.60;;;;;;5032169;28;20351;-44
2023/06/20 01:55:30;;;;;;;20.80;18.67;;;15.00;89.50;;;;;;5031743;28;20317;-43
2023/06/20 01:57:59;;;;;;;20.85;18.85;;;15.00;89.60;;;;;;5032902;28;20024;-44
2023/06/20 02:00:28;;;;;;;22.30;20.13;;;15.00;89.50;;;;;;5031820;28;20068;-43
2023/06/20 02:03:00;;;;;;;22.33;19.92;;;15.00;89.50;;;;;;5032232;28;20041;-43
2023/06/20 02:05:31;;;;;;;24.52;20.90;;;15.00;89.50;;;;;;5031628;28;20038;-44
2023/06/20 02:08:08;;;;;;;24.25;21.75;;;14.90;89.50;;;;;;5031676;28;20041;-44
2023/06/20 02:10:36;;;;;;;23.48;20.20;;;14.90;89.50;;;;;;5032755;28;20029;-44
2023/06/20 02:13:03;;;;;;;24.02;21.52;;;14.90;89.70;;;;;;5031695;28;20040;-43
2023/06/20 02:15:34;;;;;;;25.10;22.40;;;14.90;89.70;;;;;;5032359;28;20045;-43
2023/06/20 02:18:06;;;;;;;23.77;21.27;;;14.90;89.70;;;;;;5032464;28;20658;-43
2023/06/20 02:20:33;;;;;;;25.45;22.77;;;14.90;89.80;;;;;;5031643;28;20358;-43
2023/06/20 02:23:03;;;;;;;25.27;22.27;;;14.90;89.80;;;;;;5033168;28;20029;-44
2023/06/20 02:25:34;;;;;;;24.95;22.27;;;14.90;89.80;;;;;;5036483;28;20062;-43
2023/06/20 02:28:02;;;;;;;23.38;20.88;;;14.90;89.70;;;;;;5036541;28;20022;-44
2023/06/20 02:30:33;;;;;;;25.45;22.90;;;14.90;89.80;;;;;;5036190;28;20029;-43
2023/06/20 02:33:01;;;;;;;24.52;21.95;;;14.90;89.90;;;;;;5018789;28;20033;-44
2023/06/20 02:35:31;;;;;;;26.42;23.60;;;14.90;90.00;;;;;;5034980;28;20026;-42
2023/06/20 02:38:01;;;;;;;25.83;22.98;;;14.90;90.00;;;;;;5019097;28;20087;-43
2023/06/20 02:40:30;;;;;;;26.55;23.75;;;14.90;90.00;;;;;;5018178;28;20029;-43
2023/06/20 02:42:56;;;;;;;;;;;15.00;90.10;;;;;;5036791;28;20041;-43
2023/06/20 02:45:23;;;;;;;23.50;20.92;;;14.90;90.20;;;;;;5035971;28;19971;-43
2023/06/20 02:48:16;;;;;;;25.30;22.58;;;14.90;90.30;;;;;;5035167;28;20132;-43
2023/06/20 02:51:00;;;;;;;30.80;25.75;;;15.00;90.40;;;;;;5036240;28;20032;-42
2023/06/20 02:54:02;;;;;;;26.83;24.02;;;15.00;90.40;;;;;;5034801;28;20041;-43
2023/06/20 02:56:31;;;;;;;28.55;25.23;;;15.00;90.50;;;;;;5034505;28;20021;-43
2023/06/20 02:59:11;;;;;;;25.63;22.88;;;15.10;90.60;;;;;;5034790;28;20083;-43
2023/06/20 03:01:44;;;;;;;25.98;23.27;;;15.10;90.60;;;;;;5034852;28;20040;-43
2023/06/20 03:04:15;;;;;;;25.52;22.02;;;15.10;90.70;;;;;;5034440;28;20034;-43
2023/06/20 03:06:43;;;;;;;25.63;22.42;;;15.20;90.80;;;;;;5034435;28;20032;-43
2023/06/20 03:09:10;;;;;;;24.88;22.20;;;15.20;90.80;;;;;;5035461;28;20048;-43
2023/06/20 03:11:37;;;;;;;25.67;23.05;;;15.20;90.80;;;;;;5034768;28;20231;-43
2023/06/20 03:14:05;;;;;;;22.92;20.27;;;15.20;90.80;;;;;;5035343;28;20120;-43
2023/06/20 03:16:32;;;;;;;26.60;22.05;;;15.20;90.80;;;;;;5034596;28;20045;-42
2023/06/20 03:18:58;;;;;;;23.17;20.77;;;15.20;90.70;;;;;;5035538;28;20100;-44
2023/06/20 03:21:25;;;;;;;23.02;20.42;;;15.20;90.80;;;;;;5035272;28;20097;-44
2023/06/20 03:23:51;;;;;;;26.17;22.67;;;15.20;90.80;;;;;;5035257;28;20025;-44
2023/06/20 03:26:20;;;;;;;23.67;21.20;;;15.30;90.80;;;;;;5035132;28;20107;-42
2023/06/20 03:28:48;;;;;;;23.23;20.65;;;15.30;90.80;;;;;;5035286;28;20021;-42
2023/06/20 03:31:13;;;;;;;27.55;24.67;;;15.30;90.90;;;;;;5034806;28;20037;-43
2023/06/20 03:33:40;;;;;;;27.73;23.80;;;15.30;90.90;;;;;;5035061;28;20032;-43
2023/06/20 03:36:09;;;;;;;27.95;25.08;;;15.40;91.10;;;;;;5033162;28;20033;-42
2023/06/20 03:38:42;;;;;;;26.88;23.42;;;15.40;90.90;;;;;;5035325;28;20056;-43
2023/06/20 03:41:11;;;;;;;26.13;23.27;;;15.40;91.00;;;;;;5034451;28;20030;-43
2023/06/20 03:43:38;;;;;;;24.80;22.30;;;15.40;91.00;;;;;;5034602;28;20045;-43
2023/06/20 03:46:05;;;;;;;25.63;22.98;;;15.50;91.00;;;;;;5035089;28;20033;-43
2023/06/20 03:48:34;;;;;;;25.00;22.50;;;15.50;91.00;;;;;;5035066;28;20025;-43
2023/06/20 03:51:04;;;;;;;24.27;21.70;;;15.50;91.00;;;;;;5034659;28;20026;-43
2023/06/20 03:53:29;;;;;;;23.65;20.13;;;15.50;91.00;;;;;;5034435;28;20029;-42
2023/06/20 03:55:57;;;;;;;23.02;20.60;;;15.50;91.00;;;;;;5034487;28;20032;-43
2023/06/20 03:58:29;;;;;;;22.92;20.65;;;15.60;91.00;;;;;;5034820;28;20091;-44
2023/06/20 04:00:56;;;;;;;22.33;19.98;;;15.60;91.10;;;;;;5034298;28;20061;-44
2023/06/20 04:03:22;;;;;;;21.08;18.88;;;15.70;91.20;;;;;;5034378;28;20103;-42
2023/06/20 04:05:48;;;;;;;21.83;17.73;;;15.70;91.20;;;;;;5033287;28;20441;-42
2023/06/20 04:08:15;;;;;;;21.70;19.55;;;15.80;91.30;;;;;;5034473;28;20029;-42
2023/06/20 04:10:45;;;;;;;19.83;17.70;;;15.90;91.20;;;;;;5034452;28;20112;-44
2023/06/20 04:13:10;;;;;;;22.30;19.45;;;15.90;91.20;;;;;;5034303;28;20022;-43
2023/06/20 04:15:37;;;;;;;21.77;19.08;;;15.90;91.30;;;;;;5032961;28;20575;-43
2023/06/20 04:18:06;;;;;;;20.77;18.73;;;16.00;91.40;;;;;;5034220;28;20025;-43
2023/06/20 04:20:34;;;;;;;17.92;16.10;;;16.10;91.30;;;;;;5033125;28;20131;-45
2023/06/20 04:23:01;;;;;;;19.33;17.40;;;16.10;91.30;;;;;;5033175;28;20029;-43
2023/06/20 04:25:29;;;;;;;19.35;17.35;;;16.30;91.40;;;;;;5034141;28;20072;-46
2023/06/20 04:27:57;;;;;;;16.85;15.23;;;16.30;91.20;;;;;;5033166;28;20463;-43
2023/06/20 04:30:26;;;;;;;19.27;17.27;;;16.30;91.20;;;;;;5033653;28;20432;-42
2023/06/20 04:32:57;;;;;;;18.17;16.33;;;16.40;91.20;;;;;;5033925;28;20439;-43
2023/06/20 04:35:24;;;;;;;15.23;13.70;;;16.40;91.20;;;;;;5033659;28;20034;-43
2023/06/20 04:37:52;;;;;;;14.50;13.02;;;16.50;91.20;;;;;;5033665;28;20017;-43
2023/06/20 04:40:18;;;;;;;16.17;14.57;;;16.60;91.10;;;;;;5033614;28;20036;-43
2023/06/20 04:42:45;;;;;;;17.10;15.15;;;16.60;91.00;;;;;;5032639;28;20030;-43
2023/06/20 04:45:12;;;;;;;15.88;14.30;;;16.70;91.00;;;;;;5033975;28;20057;-43
2023/06/20 04:47:41;;;;;;;16.38;14.70;;;16.80;90.90;;;;;;5033457;28;20029;-43
2023/06/20 04:50:09;;;;;;;15.27;13.80;;;16.90;90.80;;;;;;5033608;28;20033;-43
2023/06/20 04:52:34;;;;;;;16.20;14.57;;;16.90;90.80;;;;;;5033402;28;20415;-43
2023/06/20 04:55:10;;;;;;;15.32;13.73;;;17.00;90.80;;;;;;5033558;28;20078;-44
2023/06/20 04:57:38;;;;;;;16.30;14.55;;;17.10;90.80;;;;;;5032446;28;20029;-44
2023/06/20 05:00:07;;;;;;;14.57;13.27;;;17.30;90.80;;;;;;5033513;28;20029;-43
2023/06/20 05:02:34;;;;;;;15.05;13.55;;;17.40;90.90;;;;;;5033608;28;20109;-43
2023/06/20 05:05:03;;;;;;;14.90;13.52;;;17.50;90.80;;;;;;5033488;28;20033;-44
2023/06/20 05:07:29;;;;;;;15.68;14.07;;;17.60;90.70;;;;;;5033180;28;20038;-44
2023/06/20 05:09:56;;;;;;;16.80;14.93;;;17.70;90.50;;;;;;5033187;28;20036;-43
2023/06/20 05:12:22;;;;;;;18.30;16.50;;;17.80;90.00;;;;;;5033222;28;20120;-45
2023/06/20 05:14:49;;;;;;;22.17;17.25;;;17.90;89.80;;;;;;5032078;28;20049;-44
2023/06/20 05:17:20;;;;;;;18.83;16.83;;;17.90;89.30;;;;;;5033298;28;20025;-44
2023/06/20 05:19:50;;;;;;;19.75;17.30;;;17.90;88.90;;;;;;5032894;28;20026;-44
2023/06/20 05:22:17;;;;;;;16.75;15.02;;;17.90;89.00;;;;;;5032091;28;20076;-45
2023/06/20 05:24:46;;;;;;;15.43;13.80;;;18.00;88.90;;;;;;5033271;28;20033;-44
2023/06/20 05:27:12;;;;;;;22.13;16.75;;;18.10;88.80;;;;;;5033488;28;20029;-45
2023/06/20 05:29:42;;;;;;;15.77;14.27;;;18.20;88.50;;;;;;5031824;28;20049;-44
2023/06/20 05:32:10;;;;;;;16.80;14.80;;;18.30;88.50;;;;;;5033060;28;20048;-44
2023/06/20 05:34:38;;;;;;;16.58;14.32;;;18.50;88.20;;;;;;5033120;28;20033;-44
2023/06/20 05:37:07;;;;;;;12.75;11.45;;;18.60;87.50;;;;;;5032997;28;20046;-46
2023/06/20 05:39:34;;;;;;;13.25;11.85;;;18.60;87.20;;;;;;5033084;28;20383;-46
2023/06/20 05:42:04;;;;;;;15.07;12.38;;;18.80;86.80;;;;;;5032519;28;20034;-44
2023/06/20 05:44:32;;;;;;;12.48;10.52;;;18.90;86.40;;;;;;5032465;28;20037;-45
2023/06/20 05:47:00;;;;;;;12.15;10.82;;;18.90;85.50;;;;;;5032873;28;20029;-45
2023/06/20 05:49:27;;;;;;;11.25;8.95;;;18.90;84.80;;;;;;5032552;28;20025;-45
2023/06/20 05:51:54;;;;;;;11.52;10.32;;;18.90;84.40;;;;;;5032249;28;20478;-46
2023/06/20 05:54:22;;;;;;;10.02;8.70;;;19.00;84.00;;;;;;5032136;28;20029;-46
2023/06/20 05:56:50;;;;;;;13.43;9.30;;;19.10;84.30;;;;;;5032036;28;20335;-46
2023/06/20 05:59:19;;;;;;;11.20;9.55;;;19.20;83.40;;;;;;5035047;28;20026;-44
2023/06/20 06:01:46;;;;;;;9.48;8.15;;;19.20;83.20;;;;;;5036060;28;20038;-48
2023/06/20 06:04:14;;;;;;;9.75;8.52;;;19.40;83.60;;;;;;5035813;28;20029;-45
2023/06/20 06:06:43;;;;;;;11.20;8.82;;;19.40;83.00;;;;;;5036074;28;20088;-45
2023/06/20 06:09:14;;;;;;;10.00;7.95;;;19.40;82.30;;;;;;5035825;28;20029;-46
2023/06/20 06:11:49;;;;;;;9.38;8.00;;;19.50;81.80;;;;;;5035495;28;20021;-47
2023/06/20 06:14:15;;;;;;;10.13;7.82;;;19.60;81.20;;;;;;5034601;28;20033;-46
2023/06/20 06:16:44;;;;;;;7.95;6.97;;;19.70;80.30;;;;;;5035672;28;20525;-47
2023/06/20 06:19:12;;;;;;;9.98;6.85;;;19.80;79.60;;;;;;5035959;28;20029;-47
2023/06/20 06:21:39;;;;;;;8.55;7.07;;;20.00;79.10;;;;;;5036155;28;20059;-47
2023/06/20 06:24:08;;;;;;;9.20;7.45;;;20.00;77.90;;;;;;5036152;28;20053;-51
2023/06/20 06:26:36;;;;;;;11.03;8.27;;;20.10;77.20;;;;;;5036493;28;20049;-47
2023/06/20 06:29:04;;;;;;;9.50;7.47;;;20.20;77.60;;;;;;5036278;28;20265;-47
2023/06/20 06:31:33;;;;;;;8.02;6.35;;;20.30;77.10;;;;;;5036059;28;20029;-47
2023/06/20 06:34:10;;;;;;;7.07;6.15;;;20.60;76.70;;;;;;5018788;28;20025;-49
2023/06/20 06:36:40;;;;;;;10.82;7.15;;;20.90;76.30;;;;;;5036150;28;20029;-49
2023/06/20 06:39:11;;;;;;;8.15;6.65;;;21.00;74.40;;;;;;5036445;28;20021;-48
2023/06/20 06:41:39;;;;;;;7.82;6.95;;;21.10;72.70;;;;;;5035948;28;20482;-48
2023/06/20 06:44:06;;;;;;;7.15;6.43;;;21.00;72.10;;;;;;5035750;28;20025;-48
2023/06/20 06:46:33;;;;;;;8.32;6.35;;;21.00;71.90;;;;;;5035734;28;20428;-48
2023/06/20 06:49:05;;;;;;;6.60;5.90;;;21.20;72.80;;;;;;5036072;28;20489;-48
2023/06/20 06:51:39;;;;;;;7.40;5.72;;;21.20;71.00;;;;;;5036052;28;20029;-48
2023/06/20 06:54:09;;;;;;;7.35;6.25;;;21.30;71.80;;;;;;5035149;28;20095;-49
2023/06/20 06:56:38;;;;;;;7.05;5.15;;;21.40;71.40;;;;;;5035819;28;20397;-50
2023/06/20 06:59:07;;;;;;;7.55;5.95;;;21.60;70.20;;;;;;5035509;28;20430;-48
2023/06/20 07:01:35;;;;;;;8.82;6.05;;;21.70;70.00;;;;;;5034424;28;20458;-50
2023/06/20 07:04:04;;;;;;;6.65;5.63;;;21.70;68.50;;;;;;5035683;28;20025;-51
2023/06/20 07:06:30;;;;;;;7.35;6.22;;;21.70;68.90;;;;;;5035398;28;20331;-49
2023/06/20 07:08:57;;;;;;;6.85;5.30;;;21.90;69.10;;;;;;5033810;28;20026;-48
2023/06/20 07:11:24;;;;;;;7.20;6.20;;;21.90;68.60;;;;;;5033949;28;20034;-48
2023/06/20 07:13:51;;;;;;;7.65;5.55;;;21.90;69.10;;;;;;5035611;28;20033;-48
2023/06/20 07:16:17;;;;;;;7.93;5.85;;;22.00;69.60;;;;;;5034960;28;20057;-49
2023/06/20 07:18:44;;;;;;;7.13;5.70;;;22.10;69.40;;;;;;5035567;28;20522;-48
2023/06/20 07:21:11;;;;;;;9.13;5.93;;;22.30;68.80;;;;;;5035218;28;20026;-48
2023/06/20 07:23:37;;;;;;;8.15;6.07;;;22.40;68.50;;;;;;5034579;28;20592;-48
2023/06/20 07:26:05;;;;;;;7.85;6.05;;;22.60;69.00;;;;;;5035077;28;20033;-48
2023/06/20 07:28:37;;;;;;;7.65;5.63;;;22.70;68.30;;;;;;5033585;28;20029;-49
2023/06/20 07:31:04;;;;;;;6.43;5.70;;;22.90;68.50;;;;;;5034864;28;20029;-48
2023/06/20 07:33:30;;;;;;;8.18;5.70;;;23.20;68.00;;;;;;5034552;28;20025;-50
2023/06/20 07:36:00;;;;;;;7.10;5.55;;;23.30;67.40;;;;;;5033989;28;20312;-48
2023/06/20 07:38:29;;;;;;;14.98;6.70;;;23.30;67.30;;;;;;5033854;28;20049;-50
2023/06/20 07:40:57;;;;;;;;;;;23.10;67.70;;;;;;5036095;28;20367;-49
2023/06/20 07:43:25;;;;;;;7.20;6.40;;;23.10;68.00;;;;;;5034571;28;19959;-48
2023/06/20 07:45:55;;;;;;;8.45;5.63;;;23.00;69.00;;;;;;5034768;28;20038;-48
2023/06/20 07:48:30;;;;;;;9.35;7.30;;;22.90;69.60;;;;;;5034765;28;20021;-52
2023/06/20 07:50:57;;;;;;;6.68;5.93;;;22.80;69.20;;;;;;5018010;28;20363;-52
2023/06/20 07:53:24;;;;;;;9.23;6.70;;;22.90;69.10;;;;;;5034710;28;20026;-48
2023/06/20 07:55:53;;;;;;;9.00;7.18;;;23.10;69.90;;;;;;5034443;28;20094;-50
2023/06/20 07:58:22;;;;;;;7.93;6.83;;;23.50;70.10;;;;;;5034703;28;20443;-49
2023/06/20 08:00:50;;;;;;;8.15;7.35;;;23.90;68.60;;;;;;5034375;28;20033;-51
2023/06/20 08:03:21;;;;;;;9.93;7.70;;;24.30;66.90;;;;;;5033686;28;20036;-48
2023/06/20 08:05:51;;;;;;;11.20;7.93;;;24.50;64.80;;;;;;5034535;28;20036;-52
2023/06/20 08:08:19;;;;;;;8.98;8.07;;;24.50;65.60;;;;;;5034109;28;20105;-50
2023/06/20 08:10:46;;;;;;;11.13;10.07;;;24.50;65.00;;;;;;5034012;28;20040;-51
2023/06/20 08:13:13;;;;;;;9.07;8.10;;;24.30;64.30;;;;;;5033931;28;20101;-48
2023/06/20 08:15:41;;;;;;;10.82;9.70;;;24.30;65.40;;;;;;5034113;28;20514;-49
2023/06/20 08:18:08;;;;;;;9.45;8.05;;;24.40;65.70;;;;;;5036218;28;20045;-49
2023/06/20 08:20:36;;;;;;;9.52;8.00;;;24.60;66.10;;;;;;5033656;28;20056;-49
2023/06/20 08:23:03;;;;;;;10.10;9.20;;;24.60;66.10;;;;;;5033409;28;20104;-49
2023/06/20 08:25:30;;;;;;;11.38;9.55;;;24.70;65.30;;;;;;5033912;28;20064;-49
2023/06/20 08:27:59;;;;;;;9.98;8.60;;;24.60;65.00;;;;;;5034098;28;20022;-48
2023/06/20 08:30:26;;;;;;;9.20;8.30;;;24.50;66.60;;;;;;5034149;28;20025;-49
2023/06/20 08:32:54;;;;;;;9.93;8.82;;;24.60;67.20;;;;;;5032861;28;20033;-49
2023/06/20 08:35:21;;;;;;;10.00;9.00;;;24.50;67.90;;;;;;5033838;28;20021;-49
2023/06/20 08:37:48;;;;;;;9.65;8.52;;;24.50;68.20;;;;;;5033095;28;20345;-51
2023/06/20 08:40:17;;;;;;;9.68;8.50;;;24.50;68.20;;;;;;5033943;28;20033;-50
2023/06/20 08:42:43;;;;;;;;;;;24.40;67.80;;;;;;5033962;28;20040;-52
2023/06/20 08:45:11;;;;;;;9.45;8.45;;;24.30;68.90;;;;;;5033479;28;19909;-50
2023/06/20 08:47:41;;;;;;;10.30;9.27;;;24.10;69.00;;;;;;5033826;28;20079;-49
2023/06/20 08:50:08;;;;;;;10.95;8.80;;;23.90;69.50;;;;;;5032869;28;20124;-53
2023/06/20 08:52:47;;;;;;;10.43;8.07;;;23.80;69.90;;;;;;5033626;28;20449;-49
2023/06/20 08:55:17;;;;;;;14.33;10.60;;;23.60;71.20;;;;;;5033482;28;20037;-51
2023/06/20 08:57:51;;;;;;;13.38;9.77;;;23.40;70.80;;;;;;5033419;28;20025;-49
2023/06/20 09:00:23;;;;;;;10.98;8.40;;;23.20;71.40;;;;;;5032654;28;20103;-49
2023/06/20 09:02:56;;;;;;;11.18;9.70;;;23.10;72.70;;;;;;5033633;28;20095;-49
2023/06/20 09:05:23;;;;;;;11.77;8.80;;;23.00;73.10;;;;;;5033192;28;20431;-49
2023/06/20 09:08:06;;;;;;;11.02;9.20;;;23.00;73.50;;;;;;5032095;28;20121;-50
2023/06/20 09:10:36;;;;;;;11.23;9.50;;;22.90;73.70;;;;;;5032343;28;20060;-49
2023/06/20 09:13:06;;;;;;;12.02;10.52;;;22.90;74.20;;;;;;5033123;28;20131;-49
2023/06/20 09:15:38;;;;;;;11.23;10.15;;;22.90;74.40;;;;;;5031935;28;20076;-52
2023/06/20 09:18:15;;;;;;;11.40;9.05;;;22.90;74.60;;;;;;5033321;28;20119;-49
2023/06/20 09:20:43;;;;;;;12.35;11.30;;;22.90;74.70;;;;;;5033018;28;20037;-51
2023/06/20 09:23:25;;;;;;;12.63;10.20;;;22.90;74.10;;;;;;5033269;28;20117;-49
2023/06/20 09:25:55;;;;;;;11.55;10.35;;;22.90;74.60;;;;;;5033237;28;20025;-50
2023/06/20 09:28:22;;;;;;;9.55;8.32;;;22.90;73.60;;;;;;5033100;28;20029;-50
2023/06/20 09:30:49;;;;;;;10.70;9.65;;;22.90;74.40;;;;;;5032014;28;20052;-48
2023/06/20 09:33:16;;;;;;;10.88;9.88;;;22.90;74.50;;;;;;5031264;28;20061;-49
2023/06/20 09:35:44;;;;;;;10.25;9.25;;;22.90;74.80;;;;;;5032156;28;20057;-48
2023/06/20 09:38:10;;;;;;;14.70;10.48;;;22.90;74.40;;;;;;5032909;28;20100;-48
2023/06/20 09:40:44;;;;;;;12.15;10.90;;;22.90;74.70;;;;;;5032887;28;20398;-49
2023/06/20 09:43:11;;;;;;;13.35;12.00;;;22.90;74.80;;;;;;5032873;28;20034;-49
2023/06/20 09:45:38;;;;;;;15.10;11.70;;;22.90;74.40;;;;;;5032086;28;20132;-51
2023/06/20 09:48:07;;;;;;;11.73;10.32;;;23.00;74.00;;;;;;5032725;28;20076;-48
2023/06/20 09:50:37;;;;;;;10.60;9.32;;;23.00;74.30;;;;;;5031927;28;20033;-49
2023/06/20 09:53:42;;;;;;;11.13;10.02;;;23.00;75.00;;;;;;5048370;28;20083;-48
2023/06/20 09:56:09;;;;;;;11.35;10.15;;;23.20;74.80;;;;;;5031867;28;20040;-48
2023/06/20 09:58:38;;;;;;;11.60;10.45;;;23.20;74.70;;;;;;5032763;28;20028;-48
2023/06/20 10:01:04;;;;;;;14.23;11.00;;;23.20;74.40;;;;;;5032644;28;20509;-48
2023/06/20 10:03:31;;;;;;;12.38;11.18;;;23.10;74.30;;;;;;5032819;28;20814;-49
2023/06/20 10:06:00;;;;;;;11.65;10.55;;;23.10;73.20;;;;;;5048454;28;20053;-48
2023/06/20 10:08:34;;;;;;;10.52;9.45;;;23.20;73.70;;;;;;5031664;28;20125;-48
2023/06/20 10:10:59;;;;;;;11.68;10.27;;;23.10;74.40;;;;;;5031472;28;20037;-47
2023/06/20 10:13:37;;;;;;;13.70;10.38;;;23.00;74.60;;;;;;5032541;28;20040;-47
2023/06/20 10:16:07;;;;;;;12.10;10.75;;;23.00;74.90;;;;;;5032535;28;20048;-49
2023/06/20 10:18:51;;;;;;;12.30;10.68;;;22.90;74.60;;;;;;5032856;28;20025;-48
2023/06/20 10:21:59;;;;;;;9.77;8.85;;;22.90;74.80;;;;;;5032504;28;20038;-47
2023/06/20 10:24:28;;;;;;;12.63;10.35;;;22.90;75.70;;;;;;5032476;28;20150;-48
2023/06/20 10:27:03;;;;;;;11.52;10.43;;;22.80;75.80;;;;;;5032410;28;20029;-48
2023/06/20 10:29:38;;;;;;;14.10;12.75;;;22.80;76.10;;;;;;5033491;28;20040;-48
2023/06/20 10:32:22;;;;;;;12.77;11.60;;;22.90;75.00;;;;;;5031288;28;20029;-48
2023/06/20 10:34:52;;;;;;;18.00;11.27;;;22.90;75.50;;;;;;5032352;28;20112;-47
2023/06/20 10:37:40;;;;;;;12.73;11.38;;;23.10;75.50;;;;;;5033730;28;20033;-48
2023/06/20 10:40:32;;;;;;;11.95;10.80;;;23.30;75.70;;;;;;5032066;28;20029;-48
2023/06/20 10:42:58;;;;;;;12.93;10.77;;;23.40;74.70;;;;;;5032390;28;20035;-48
2023/06/20 10:45:53;;;;;;;13.27;10.57;;;23.50;74.70;;;;;;5033895;28;20029;-47
2023/06/20 10:48:20;;;;;;;13.25;11.93;;;23.70;74.50;;;;;;5035893;28;20039;-49
2023/06/20 10:50:48;;;;;;;12.57;10.13;;;23.80;73.90;;;;;;5035231;28;20095;-49
2023/06/20 10:53:15;;;;;;;13.30;11.90;;;23.90;73.90;;;;;;5035736;28;20040;-47
2023/06/20 10:55:46;;;;;;;14.77;13.30;;;23.90;73.30;;;;;;5034727;28;20029;-48
2023/06/20 10:58:13;;;;;;;13.57;12.27;;;23.90;71.50;;;;;;5034969;28;20025;-47
2023/06/20 11:00:39;;;;;;;13.75;12.45;;;24.00;71.40;;;;;;5035582;28;20578;-48
2023/06/20 11:03:10;;;;;;;11.73;10.48;;;24.10;71.00;;;;;;5034522;28;20087;-51
2023/06/20 11:05:38;;;;;;;13.32;11.35;;;24.10;72.10;;;;;;5035585;28;20021;-48
2023/06/20 11:08:08;;;;;;;14.15;12.75;;;24.10;71.40;;;;;;5035315;28;20351;-48
2023/06/20 11:10:41;;;;;;;13.05;11.75;;;24.00;71.10;;;;;;5035688;28;20025;-48
2023/06/20 11:13:08;;;;;;;15.85;14.38;;;24.20;72.50;;;;;;5035719;28;20044;-48
2023/06/20 11:15:38;;;;;;;14.30;12.90;;;24.20;72.30;;;;;;5035122;28;20049;-48
2023/06/20 11:18:20;;;;;;;12.50;11.18;;;24.20;72.50;;;;;;5035257;28;20033;-48
2023/06/20 11:20:48;;;;;;;15.38;13.77;;;24.30;72.40;;;;;;5035652;28;20382;-48
2023/06/20 11:23:15;;;;;;;12.77;11.65;;;24.20;72.00;;;;;;5034330;28;20128;-48
2023/06/20 11:25:44;;;;;;;13.57;12.38;;;24.40;72.30;;;;;;5033973;28;20600;-48
2023/06/20 11:28:17;;;;;;;14.15;11.00;;;24.40;72.30;;;;;;5034910;28;20033;-48
2023/06/20 11:30:48;;;;;;;13.18;11.98;;;24.40;72.40;;;;;;5034964;28;20038;-48
2023/06/20 11:33:17;;;;;;;14.23;12.80;;;24.40;72.00;;;;;;5035193;28;20029;-48
2023/06/20 11:35:46;;;;;;;13.32;12.07;;;24.40;71.10;;;;;;5034967;28;20022;-50
2023/06/20 11:38:20;;;;;;;11.20;10.20;;;24.20;71.30;;;;;;5035005;28;20529;-48
2023/06/20 11:41:06;;;;;;;13.23;12.02;;;24.10;71.70;;;;;;5034931;28;20479;-48
2023/06/20 11:43:54;;;;;;;11.98;10.77;;;24.20;72.20;;;;;;5034952;28;20029;-50
2023/06/20 11:46:30;;;;;;;14.40;12.88;;;24.10;72.40;;;;;;5034787;28;20053;-48
2023/06/20 11:48:58;;;;;;;12.90;11.38;;;24.10;72.60;;;;;;5033931;28;20053;-48
2023/06/20 11:51:27;;;;;;;15.23;13.45;;;24.10;72.80;;;;;;5033928;28;20029;-49
2023/06/20 11:54:17;;;;;;;13.48;12.20;;;24.10;72.70;;;;;;5034746;28;20024;-48
2023/06/20 11:56:53;;;;;;;13.63;12.40;;;24.20;73.00;;;;;;5033943;28;20068;-50
2023/06/20 11:59:26;;;;;;;12.65;11.43;;;24.40;72.00;;;;;;5034594;28;20037;-48
2023/06/20 12:01:56;;;;;;;12.88;11.43;;;24.60;71.90;;;;;;5033706;28;20033;-49
2023/06/20 12:04:22;;;;;;;11.93;10.73;;;24.80;72.40;;;;;;5034371;28;20029;-48
2023/06/20 12:07:02;;;;;;;12.45;11.23;;;24.90;71.00;;;;;;5034294;28;20398;-49
2023/06/20 12:09:42;;;;;;;11.93;10.00;;;25.10;70.20;;;;;;5033159;28;20022;-50
2023/06/20 12:12:10;;;;;;;13.23;11.75;;;25.30;69.50;;;;;;5034727;28;20022;-48
2023/06/20 12:14:37;;;;;;;12.15;10.10;;;25.30;68.10;;;;;;5034029;28;20043;-49
2023/06/20 12:17:06;;;;;;;9.50;8.07;;;25.50;68.90;;;;;;5034489;28;20435;-48
2023/06/20 12:19:48;;;;;;;11.27;8.13;;;25.60;68.80;;;;;;5033159;28;20045;-48
2023/06/20 12:22:15;;;;;;;10.20;9.23;;;25.60;69.30;;;;;;5034407;28;20028;-48
2023/06/20 12:24:42;;;;;;;9.48;8.02;;;25.50;68.30;;;;;;5033854;28;20136;-49
2023/06/20 12:27:11;;;;;;;10.65;9.50;;;25.40;69.00;;;;;;5033978;28;20026;-48
2023/06/20 12:29:41;;;;;;;10.93;9.88;;;25.10;68.60;;;;;;5034270;28;20038;-48
2023/06/20 12:32:09;;;;;;;;;;;24.80;68.70;;;;;;5034428;28;20064;-49
2023/06/20 12:34:44;;;;;;;11.02;9.18;;;24.50;69.30;;;;;;5033845;28;19959;-48
2023/06/20 12:37:12;;;;;;;11.13;8.60;;;24.40;69.10;;;;;;5033618;28;20033;-49
2023/06/20 12:39:39;;;;;;;10.70;8.07;;;24.30;69.70;;;;;;5034029;28;20109;-49
2023/06/20 12:42:09;;;;;;;9.10;8.23;;;24.20;71.10;;;;;;5032945;28;20029;-48
2023/06/20 12:44:36;;;;;;;10.45;9.35;;;24.10;71.30;;;;;;5032654;28;20057;-49
2023/06/20 12:47:03;;;;;;;9.63;8.32;;;24.10;71.40;;;;;;5033828;28;20493;-48
2023/06/20 12:49:30;;;;;;;9.18;8.27;;;24.00;72.30;;;;;;5033721;28;20072;-48